AirNav   Air Wisconsin Up To $57,000 Bonus
 
 1262 users online  

PN09 Charles Cole Memorial Hospital Heliport
Coudersport, Pennsylvania, USA

GOING TO COUDERSPORT?


FAA INFORMATION EFFECTIVE 07 NOVEMBER 2019

Location

FAA Identifier: PN09
Lat/Long: 41-46-18.0000N 077-58-47.0000W
41-46.300000N 077-58.783333W
41.7716667,-77.9797222
(estimated)
Elevation: 1753 ft. / 534.3 m (surveyed)
Variation: 12W (1995)
From city: 2 miles E of COUDERSPORT, PA
Time zone: UTC -5 (UTC -4 during Daylight Saving Time)
Zip code: 16915

Heliport Operations

Heliport use: Private use, MEDICAL USE.
Activation date: 04/1999
Control tower: no
ARTCC: CLEVELAND CENTER
FSS: ALTOONA FLIGHT SERVICE STATION
NOTAMs facility: FDC (NOTAM-D service not available)
Attendance: UNATNDD
Wind indicator: lighted
Segmented circle: no
Lights: PHONE REQ

Heliport Communications

  • APCH/DEP SVC PRVDD BY CLEVELAND ARTCC (ZOB) ON 124.325/353.85 (WAYLAND RCAG).

Nearby radio navigation aids

VOR radial/distance  VOR name  Freq  Var
SLTr006/15.5SLATE RUN VORTAC113.9008W
ELZr186/19.1WELLSVILLE VORTAC111.4009W
SFKr288/25.5STONYFORK VOR/DME108.6008W
BFDr099/28.6BRADFORD VOR/DME116.6007W
ETGr022/34.2KEATING VORTAC116.0010W

Heliport Services

Runway Information

Helipad H1

Dimensions: 80 x 80 ft. / 24 x 24 m
Surface: asphalt/concrete, in fair condition
Runway edge lights: PERI
FOR PERIMETER LGTS CALL 814-260-5281.
Latitude: 41-46.300000N
Longitude: 077-58.783333W
Elevation: 1735.0 ft.
Traffic pattern: leftleft
Markings: none, in fair condition

Heliport Ownership and Management from official FAA records

Ownership: Privately-owned
Owner: CHARLES COLE MEMORIAL HOSPITAL
1001 EAST SECOND ST
COUDERSPORT, PA 16915
Phone 814-274-9300
Manager: MELVIN BLAKE
1001 EAST SECOND ST
COUDERSPORT, PA 16915
Phone 814-260-5281

Heliport Operational Statistics

Aircraft based on the field: 1
Helicopters: 1
    

Additional Remarks

A52-H1 RY H1 20 FT BLDG LGTD NEAR PAD.
FOR CD CTC CLEVELAND ARTCC AT 440-774-0227.

Instrument Procedures

There are no published instrument procedures at PN09.

Some nearby airports with instrument procedures:

KELZ - Wellsville Municipal Airport, Tarantine Field (20 nm N)
N38 - Wellsboro Johnston Airport (26 nm E)
KBFD - Bradford Regional Airport (30 nm W)
KOYM - St Marys Municipal Airport (32 nm SW)
KOLE - Cattaraugus County-Olean Airport (33 nm NW)
 
Loc | Ops | Rwys | IFR | FBO | Links
Com | Nav | Svcs | Stats | Notes
Area around PN09 (Charles Cole Memorial Hospital Heliport)
 
Road maps at: MapQuest Bing Google
 
Aerial photo
No photo
 
Sectional chart

 
Airport distance calculator
Flying to Charles Cole Memorial Hospital Heliport? Find the distance to fly.

From to PN09

Sunrise and sunset
Times for 21-Nov-2019
 Local
(UTC-5)
 Zulu
(UTC)
Morning civil twilight06:3911:39
Sunrise07:0912:09
Sunset16:4621:46
Evening civil twilight17:1622:16

Current date and time
Zulu (UTC)  21-Nov-2019 14:54:43
Local (UTC-5)  21-Nov-2019 09:54:43
 
METAR
KELZ 
20nm N 
211424Z AUTO VRB04KT 9SM FEW009 02/M01 A3016 RMK AO2 T00221006 $
KN38 
26nm E 
211435Z AUTO 18008KT 3SM BR OVC005 00/M00 A3018 RMK AO2
KBFD 
29nm W 
211353Z AUTO 17004KT 8SM CLR 00/M02 A3017 RMK AO2 SLP235 T00001022
KOYM 
32nm SW 
210934Z AUTO 00000KT 7SM SCT120 M02/M02 A3022 RMK AO2
KOLE 
33nm NW 
211435Z AUTO 19008KT 10SM CLR 00/00 A3014 RMK AO2
TAF
KBFD 
29nm W 
211146Z 2112/2212 00000KT 6SM BR SCT010 FM211300 18007KT P6SM BKN120 FM211800 18008G15KT P6SM OVC080 FM220000 18009G19KT P6SM VCSH OVC060 WS015/22042KT FM220400 23012KT P6SM VCSH OVC015 FM221000 27013G26KT P6SM OVC010
NOTAMs
Click for the latest NOTAMs
NOTAMs are issued by the DoD/FAA and will open in a separate window not controlled by AirNav.

 

 
 

Would you like to see your business listed on this page?

 If your business provides an interesting product or service to pilots, flight crews, aircraft, or users of the Charles Cole Memorial Hospital Heliport, you should consider listing it here.  To start the listing process, click on the button below
 
Add a business
 

Other Pages about Charles Cole Memorial Hospital Heliport

Update a link
 
Copyright © AirNav, LLC. All rights reserved. Privacy Policy  Contact